sensor_id;sensor_type;location;lat;lon;timestamp;P1;durP1;ratioP1;P2;durP2;ratioP2
19189;SDS011;9727;50.200;19.038;2023-03-03T00:01:16;99.93;;;44.53;;
19189;SDS011;9727;50.200;19.038;2023-03-03T00:03:43;107.97;;;46.13;;
19189;SDS011;9727;50.200;19.038;2023-03-03T00:06:10;103.20;;;45.83;;
19189;SDS011;9727;50.200;19.038;2023-03-03T00:08:39;102.70;;;43.77;;
19189;SDS011;9727;50.200;19.038;2023-03-03T00:11:06;99.43;;;44.27;;
19189;SDS011;9727;50.200;19.038;2023-03-03T00:13:43;93.90;;;41.93;;
19189;SDS011;9727;50.200;19.038;2023-03-03T00:16:15;92.97;;;42.53;;
19189;SDS011;9727;50.200;19.038;2023-03-03T00:18:42;89.10;;;42.97;;
19189;SDS011;9727;50.200;19.038;2023-03-03T00:21:26;99.80;;;42.37;;
19189;SDS011;9727;50.200;19.038;2023-03-03T00:23:56;96.37;;;41.60;;
19189;SDS011;9727;50.200;19.038;2023-03-03T00:26:26;90.67;;;42.23;;
19189;SDS011;9727;50.200;19.038;2023-03-03T00:28:54;98.03;;;42.70;;
19189;SDS011;9727;50.200;19.038;2023-03-03T00:31:25;88.07;;;41.00;;
19189;SDS011;9727;50.200;19.038;2023-03-03T00:33:53;89.27;;;40.60;;
19189;SDS011;9727;50.200;19.038;2023-03-03T00:36:30;96.63;;;43.37;;
19189;SDS011;9727;50.200;19.038;2023-03-03T00:41:53;93.60;;;42.33;;
19189;SDS011;9727;50.200;19.038;2023-03-03T00:44:37;95.30;;;42.47;;
19189;SDS011;9727;50.200;19.038;2023-03-03T00:49:53;90.10;;;42.23;;
19189;SDS011;9727;50.200;19.038;2023-03-03T00:52:20;105.87;;;44.97;;
19189;SDS011;9727;50.200;19.038;2023-03-03T00:54:47;104.13;;;45.23;;
19189;SDS011;9727;50.200;19.038;2023-03-03T00:57:15;97.63;;;44.13;;
19189;SDS011;9727;50.200;19.038;2023-03-03T00:59:41;92.60;;;43.00;;
19189;SDS011;9727;50.200;19.038;2023-03-03T01:02:08;99.77;;;45.50;;
19189;SDS011;9727;50.200;19.038;2023-03-03T01:04:35;98.40;;;42.37;;
19189;SDS011;9727;50.200;19.038;2023-03-03T01:07:02;92.60;;;41.83;;
19189;SDS011;9727;50.200;19.038;2023-03-03T01:09:28;94.50;;;43.17;;
19189;SDS011;9727;50.200;19.038;2023-03-03T01:11:55;100.50;;;43.70;;
19189;SDS011;9727;50.200;19.038;2023-03-03T01:14:24;97.60;;;45.27;;
19189;SDS011;9727;50.200;19.038;2023-03-03T01:16:52;108.07;;;49.37;;
19189;SDS011;9727;50.200;19.038;2023-03-03T01:19:18;100.00;;;46.27;;
19189;SDS011;9727;50.200;19.038;2023-03-03T01:21:45;103.90;;;46.93;;
19189;SDS011;9727;50.200;19.038;2023-03-03T01:24:12;109.20;;;48.53;;
19189;SDS011;9727;50.200;19.038;2023-03-03T01:26:39;111.33;;;49.57;;
19189;SDS011;9727;50.200;19.038;2023-03-03T01:29:05;107.53;;;49.87;;
19189;SDS011;9727;50.200;19.038;2023-03-03T01:31:33;100.17;;;45.90;;
19189;SDS011;9727;50.200;19.038;2023-03-03T01:34:00;109.60;;;46.20;;
19189;SDS011;9727;50.200;19.038;2023-03-03T01:36:27;105.53;;;45.43;;
19189;SDS011;9727;50.200;19.038;2023-03-03T01:38:53;104.27;;;47.07;;
19189;SDS011;9727;50.200;19.038;2023-03-03T01:41:21;102.97;;;46.53;;
19189;SDS011;9727;50.200;19.038;2023-03-03T01:43:49;99.00;;;43.80;;
19189;SDS011;9727;50.200;19.038;2023-03-03T01:46:26;107.13;;;46.53;;
19189;SDS011;9727;50.200;19.038;2023-03-03T01:48:56;109.53;;;49.60;;
19189;SDS011;9727;50.200;19.038;2023-03-03T01:51:37;109.47;;;48.63;;
19189;SDS011;9727;50.200;19.038;2023-03-03T01:54:04;116.50;;;51.00;;
19189;SDS011;9727;50.200;19.038;2023-03-03T01:56:32;107.83;;;49.50;;
19189;SDS011;9727;50.200;19.038;2023-03-03T01:58:59;114.07;;;49.60;;
19189;SDS011;9727;50.200;19.038;2023-03-03T02:01:27;111.93;;;49.20;;
19189;SDS011;9727;50.200;19.038;2023-03-03T02:03:56;108.97;;;50.17;;
19189;SDS011;9727;50.200;19.038;2023-03-03T02:06:23;119.63;;;52.67;;
19189;SDS011;9727;50.200;19.038;2023-03-03T02:08:51;121.40;;;52.80;;
19189;SDS011;9727;50.200;19.038;2023-03-03T02:11:19;113.27;;;51.47;;
19189;SDS011;9727;50.200;19.038;2023-03-03T02:13:47;116.93;;;51.37;;
19189;SDS011;9727;50.200;19.038;2023-03-03T02:16:14;115.00;;;50.47;;
19189;SDS011;9727;50.200;19.038;2023-03-03T02:18:40;113.53;;;50.80;;
19189;SDS011;9727;50.200;19.038;2023-03-03T02:21:18;114.77;;;50.93;;
19189;SDS011;9727;50.200;19.038;2023-03-03T02:23:47;109.07;;;50.20;;
19189;SDS011;9727;50.200;19.038;2023-03-03T02:26:18;116.07;;;50.20;;
19189;SDS011;9727;50.200;19.038;2023-03-03T02:28:48;115.43;;;49.30;;
19189;SDS011;9727;50.200;19.038;2023-03-03T02:31:18;113.30;;;49.33;;
19189;SDS011;9727;50.200;19.038;2023-03-03T02:33:45;108.27;;;48.40;;
19189;SDS011;9727;50.200;19.038;2023-03-03T02:36:13;117.83;;;49.07;;
19189;SDS011;9727;50.200;19.038;2023-03-03T02:38:41;112.80;;;51.33;;
19189;SDS011;9727;50.200;19.038;2023-03-03T02:41:10;121.70;;;52.10;;
19189;SDS011;9727;50.200;19.038;2023-03-03T02:43:44;115.57;;;50.10;;
19189;SDS011;9727;50.200;19.038;2023-03-03T02:46:12;118.37;;;51.70;;
19189;SDS011;9727;50.200;19.038;2023-03-03T02:48:39;117.00;;;52.83;;
19189;SDS011;9727;50.200;19.038;2023-03-03T02:51:05;124.67;;;51.80;;
19189;SDS011;9727;50.200;19.038;2023-03-03T02:53:32;121.33;;;49.93;;
19189;SDS011;9727;50.200;19.038;2023-03-03T02:55:58;117.63;;;52.27;;
19189;SDS011;9727;50.200;19.038;2023-03-03T02:58:26;115.77;;;51.63;;
19189;SDS011;9727;50.200;19.038;2023-03-03T03:00:54;119.17;;;52.30;;
19189;SDS011;9727;50.200;19.038;2023-03-03T03:03:21;128.73;;;54.40;;
19189;SDS011;9727;50.200;19.038;2023-03-03T03:05:47;118.00;;;53.53;;
19189;SDS011;9727;50.200;19.038;2023-03-03T03:08:15;133.27;;;56.57;;
19189;SDS011;9727;50.200;19.038;2023-03-03T03:10:42;134.13;;;53.90;;
19189;SDS011;9727;50.200;19.038;2023-03-03T03:13:09;122.27;;;51.90;;
19189;SDS011;9727;50.200;19.038;2023-03-03T03:15:36;134.13;;;55.43;;
19189;SDS011;9727;50.200;19.038;2023-03-03T03:18:04;117.63;;;53.17;;
19189;SDS011;9727;50.200;19.038;2023-03-03T03:20:31;127.97;;;53.23;;
19189;SDS011;9727;50.200;19.038;2023-03-03T03:23:00;122.63;;;53.60;;
19189;SDS011;9727;50.200;19.038;2023-03-03T03:25:27;121.53;;;51.80;;
19189;SDS011;9727;50.200;19.038;2023-03-03T03:27:54;123.23;;;51.87;;
19189;SDS011;9727;50.200;19.038;2023-03-03T03:30:20;117.37;;;51.07;;
19189;SDS011;9727;50.200;19.038;2023-03-03T03:32:47;116.07;;;52.17;;
19189;SDS011;9727;50.200;19.038;2023-03-03T03:35:15;110.23;;;50.57;;
19189;SDS011;9727;50.200;19.038;2023-03-03T03:37:42;119.33;;;51.60;;
19189;SDS011;9727;50.200;19.038;2023-03-03T03:40:09;123.40;;;52.33;;
19189;SDS011;9727;50.200;19.038;2023-03-03T03:42:36;123.03;;;52.50;;
19189;SDS011;9727;50.200;19.038;2023-03-03T03:45:04;119.40;;;51.53;;
19189;SDS011;9727;50.200;19.038;2023-03-03T03:47:30;122.20;;;50.97;;
19189;SDS011;9727;50.200;19.038;2023-03-03T03:49:57;113.13;;;52.10;;
19189;SDS011;9727;50.200;19.038;2023-03-03T03:52:25;118.43;;;51.30;;
19189;SDS011;9727;50.200;19.038;2023-03-03T03:54:51;118.47;;;50.33;;
19189;SDS011;9727;50.200;19.038;2023-03-03T03:57:18;118.97;;;52.87;;
19189;SDS011;9727;50.200;19.038;2023-03-03T03:59:45;117.63;;;51.47;;
19189;SDS011;9727;50.200;19.038;2023-03-03T04:02:13;119.27;;;51.70;;
19189;SDS011;9727;50.200;19.038;2023-03-03T04:04:40;123.33;;;51.30;;
19189;SDS011;9727;50.200;19.038;2023-03-03T04:07:06;118.70;;;50.53;;
19189;SDS011;9727;50.200;19.038;2023-03-03T04:09:35;116.70;;;50.90;;
19189;SDS011;9727;50.200;19.038;2023-03-03T04:12:01;118.47;;;50.27;;
19189;SDS011;9727;50.200;19.038;2023-03-03T04:14:29;113.53;;;50.73;;
19189;SDS011;9727;50.200;19.038;2023-03-03T04:16:55;114.70;;;51.67;;
19189;SDS011;9727;50.200;19.038;2023-03-03T04:19:22;134.33;;;54.37;;
19189;SDS011;9727;50.200;19.038;2023-03-03T04:21:50;126.97;;;53.47;;
19189;SDS011;9727;50.200;19.038;2023-03-03T04:24:17;116.60;;;51.57;;
19189;SDS011;9727;50.200;19.038;2023-03-03T04:26:45;117.07;;;50.43;;
19189;SDS011;9727;50.200;19.038;2023-03-03T04:29:13;118.03;;;50.63;;
19189;SDS011;9727;50.200;19.038;2023-03-03T04:31:39;113.57;;;50.03;;
19189;SDS011;9727;50.200;19.038;2023-03-03T04:34:06;114.90;;;49.90;;
19189;SDS011;9727;50.200;19.038;2023-03-03T04:36:32;116.67;;;49.77;;
19189;SDS011;9727;50.200;19.038;2023-03-03T04:38:59;119.40;;;50.57;;
19189;SDS011;9727;50.200;19.038;2023-03-03T04:41:26;122.67;;;50.23;;
19189;SDS011;9727;50.200;19.038;2023-03-03T04:43:53;119.50;;;52.47;;
19189;SDS011;9727;50.200;19.038;2023-03-03T04:46:21;141.13;;;57.70;;
19189;SDS011;9727;50.200;19.038;2023-03-03T04:48:48;154.30;;;63.27;;
19189;SDS011;9727;50.200;19.038;2023-03-03T04:51:17;171.07;;;67.33;;
19189;SDS011;9727;50.200;19.038;2023-03-03T04:53:44;188.73;;;72.60;;
19189;SDS011;9727;50.200;19.038;2023-03-03T04:56:10;166.90;;;67.23;;
19189;SDS011;9727;50.200;19.038;2023-03-03T04:58:37;134.03;;;57.73;;
19189;SDS011;9727;50.200;19.038;2023-03-03T05:01:05;122.80;;;51.83;;
19189;SDS011;9727;50.200;19.038;2023-03-03T05:03:32;114.47;;;49.67;;
19189;SDS011;9727;50.200;19.038;2023-03-03T05:05:58;106.67;;;48.93;;
19189;SDS011;9727;50.200;19.038;2023-03-03T05:08:25;119.27;;;51.13;;
19189;SDS011;9727;50.200;19.038;2023-03-03T05:10:51;118.17;;;51.77;;
19189;SDS011;9727;50.200;19.038;2023-03-03T05:13:18;118.60;;;50.50;;
19189;SDS011;9727;50.200;19.038;2023-03-03T05:15:48;115.73;;;50.07;;
19189;SDS011;9727;50.200;19.038;2023-03-03T05:18:18;119.90;;;50.37;;
19189;SDS011;9727;50.200;19.038;2023-03-03T05:20:45;113.70;;;50.63;;
19189;SDS011;9727;50.200;19.038;2023-03-03T05:23:12;130.33;;;52.07;;
19189;SDS011;9727;50.200;19.038;2023-03-03T05:25:39;124.67;;;51.40;;
19189;SDS011;9727;50.200;19.038;2023-03-03T05:28:06;118.57;;;53.43;;
19189;SDS011;9727;50.200;19.038;2023-03-03T05:30:32;109.23;;;50.97;;
19189;SDS011;9727;50.200;19.038;2023-03-03T05:33:00;126.83;;;54.80;;
19189;SDS011;9727;50.200;19.038;2023-03-03T05:35:28;128.07;;;55.00;;
19189;SDS011;9727;50.200;19.038;2023-03-03T05:37:55;127.27;;;57.87;;
19189;SDS011;9727;50.200;19.038;2023-03-03T05:40:22;137.97;;;60.00;;
19189;SDS011;9727;50.200;19.038;2023-03-03T05:42:50;140.23;;;61.40;;
19189;SDS011;9727;50.200;19.038;2023-03-03T05:45:17;141.23;;;61.47;;
19189;SDS011;9727;50.200;19.038;2023-03-03T05:47:45;138.97;;;61.93;;
19189;SDS011;9727;50.200;19.038;2023-03-03T05:50:14;146.83;;;63.43;;
19189;SDS011;9727;50.200;19.038;2023-03-03T05:52:42;140.50;;;63.43;;
19189;SDS011;9727;50.200;19.038;2023-03-03T05:55:09;151.20;;;66.37;;
19189;SDS011;9727;50.200;19.038;2023-03-03T05:57:36;149.23;;;64.17;;
19189;SDS011;9727;50.200;19.038;2023-03-03T06:00:07;155.03;;;66.63;;
19189;SDS011;9727;50.200;19.038;2023-03-03T06:02:34;152.90;;;66.20;;
19189;SDS011;9727;50.200;19.038;2023-03-03T06:05:01;163.50;;;67.33;;
19189;SDS011;9727;50.200;19.038;2023-03-03T06:07:29;152.73;;;66.70;;
19189;SDS011;9727;50.200;19.038;2023-03-03T06:09:57;150.80;;;64.53;;
19189;SDS011;9727;50.200;19.038;2023-03-03T06:12:24;147.97;;;63.63;;
19189;SDS011;9727;50.200;19.038;2023-03-03T06:14:51;154.20;;;64.33;;
19189;SDS011;9727;50.200;19.038;2023-03-03T06:17:17;154.23;;;65.47;;
19189;SDS011;9727;50.200;19.038;2023-03-03T06:19:44;147.43;;;66.53;;
19189;SDS011;9727;50.200;19.038;2023-03-03T06:22:12;146.70;;;63.07;;
19189;SDS011;9727;50.200;19.038;2023-03-03T06:24:39;150.67;;;64.53;;
19189;SDS011;9727;50.200;19.038;2023-03-03T06:27:07;145.33;;;62.53;;
19189;SDS011;9727;50.200;19.038;2023-03-03T06:29:34;144.83;;;62.53;;
19189;SDS011;9727;50.200;19.038;2023-03-03T06:32:01;135.27;;;61.37;;
19189;SDS011;9727;50.200;19.038;2023-03-03T06:34:27;136.50;;;61.33;;
19189;SDS011;9727;50.200;19.038;2023-03-03T06:36:54;131.97;;;57.23;;
19189;SDS011;9727;50.200;19.038;2023-03-03T06:39:21;132.57;;;58.93;;
19189;SDS011;9727;50.200;19.038;2023-03-03T06:41:50;124.83;;;58.27;;
19189;SDS011;9727;50.200;19.038;2023-03-03T06:44:18;128.73;;;56.57;;
19189;SDS011;9727;50.200;19.038;2023-03-03T06:46:45;132.43;;;57.47;;
19189;SDS011;9727;50.200;19.038;2023-03-03T06:49:15;128.80;;;58.97;;
19189;SDS011;9727;50.200;19.038;2023-03-03T06:51:41;135.37;;;62.70;;
19189;SDS011;9727;50.200;19.038;2023-03-03T06:54:13;134.70;;;60.93;;
19189;SDS011;9727;50.200;19.038;2023-03-03T06:56:40;137.97;;;62.13;;
19189;SDS011;9727;50.200;19.038;2023-03-03T06:59:10;148.33;;;65.47;;
19189;SDS011;9727;50.200;19.038;2023-03-03T07:01:38;153.27;;;68.77;;
19189;SDS011;9727;50.200;19.038;2023-03-03T07:04:15;167.33;;;68.47;;
19189;SDS011;9727;50.200;19.038;2023-03-03T07:06:43;153.90;;;66.93;;
19189;SDS011;9727;50.200;19.038;2023-03-03T07:09:13;153.77;;;68.17;;
19189;SDS011;9727;50.200;19.038;2023-03-03T07:11:42;161.67;;;70.63;;
19189;SDS011;9727;50.200;19.038;2023-03-03T07:14:09;164.47;;;69.83;;
19189;SDS011;9727;50.200;19.038;2023-03-03T07:16:40;158.87;;;64.93;;
19189;SDS011;9727;50.200;19.038;2023-03-03T07:19:11;168.30;;;68.03;;
19189;SDS011;9727;50.200;19.038;2023-03-03T07:21:40;155.40;;;67.87;;
19189;SDS011;9727;50.200;19.038;2023-03-03T07:24:12;156.17;;;68.33;;
19189;SDS011;9727;50.200;19.038;2023-03-03T07:26:40;155.17;;;68.33;;
19189;SDS011;9727;50.200;19.038;2023-03-03T07:29:12;160.20;;;70.20;;
19189;SDS011;9727;50.200;19.038;2023-03-03T07:31:44;178.77;;;74.43;;
19189;SDS011;9727;50.200;19.038;2023-03-03T07:34:16;171.80;;;72.57;;
19189;SDS011;9727;50.200;19.038;2023-03-03T07:36:45;175.77;;;72.43;;
19189;SDS011;9727;50.200;19.038;2023-03-03T07:39:27;174.00;;;72.73;;
19189;SDS011;9727;50.200;19.038;2023-03-03T07:41:58;186.57;;;76.50;;
19189;SDS011;9727;50.200;19.038;2023-03-03T07:44:28;184.33;;;78.03;;
19189;SDS011;9727;50.200;19.038;2023-03-03T07:47:00;205.10;;;81.10;;
19189;SDS011;9727;50.200;19.038;2023-03-03T07:49:38;202.07;;;78.30;;
19189;SDS011;9727;50.200;19.038;2023-03-03T07:52:16;199.60;;;80.90;;
19189;SDS011;9727;50.200;19.038;2023-03-03T07:54:43;206.83;;;80.70;;
19189;SDS011;9727;50.200;19.038;2023-03-03T07:57:14;200.80;;;79.33;;
19189;SDS011;9727;50.200;19.038;2023-03-03T07:59:46;197.63;;;78.27;;
19189;SDS011;9727;50.200;19.038;2023-03-03T08:02:30;208.37;;;78.73;;
19189;SDS011;9727;50.200;19.038;2023-03-03T08:04:59;198.33;;;75.80;;
19189;SDS011;9727;50.200;19.038;2023-03-03T08:07:25;209.10;;;76.87;;
19189;SDS011;9727;50.200;19.038;2023-03-03T08:09:56;202.23;;;75.27;;
19189;SDS011;9727;50.200;19.038;2023-03-03T08:12:27;179.50;;;66.20;;
19189;SDS011;9727;50.200;19.038;2023-03-03T08:14:57;182.27;;;66.13;;
19189;SDS011;9727;50.200;19.038;2023-03-03T08:17:34;157.13;;;58.10;;
19189;SDS011;9727;50.200;19.038;2023-03-03T08:20:07;154.07;;;58.07;;
19189;SDS011;9727;50.200;19.038;2023-03-03T08:22:34;152.00;;;56.50;;
19189;SDS011;9727;50.200;19.038;2023-03-03T08:25:01;144.17;;;53.63;;
19189;SDS011;9727;50.200;19.038;2023-03-03T08:27:28;141.97;;;54.63;;
19189;SDS011;9727;50.200;19.038;2023-03-03T08:29:55;139.83;;;52.57;;
19189;SDS011;9727;50.200;19.038;2023-03-03T08:32:21;140.90;;;47.17;;
19189;SDS011;9727;50.200;19.038;2023-03-03T08:37:42;119.43;;;42.07;;
19189;SDS011;9727;50.200;19.038;2023-03-03T08:40:10;120.73;;;43.03;;
19189;SDS011;9727;50.200;19.038;2023-03-03T08:42:37;116.60;;;42.40;;
19189;SDS011;9727;50.200;19.038;2023-03-03T08:45:04;116.73;;;44.03;;
19189;SDS011;9727;50.200;19.038;2023-03-03T08:47:32;120.97;;;43.20;;
19189;SDS011;9727;50.200;19.038;2023-03-03T08:49:59;113.83;;;41.10;;
19189;SDS011;9727;50.200;19.038;2023-03-03T08:52:25;116.60;;;40.50;;
19189;SDS011;9727;50.200;19.038;2023-03-03T08:55:04;111.80;;;41.20;;
19189;SDS011;9727;50.200;19.038;2023-03-03T08:57:31;109.50;;;39.57;;
19189;SDS011;9727;50.200;19.038;2023-03-03T08:59:58;99.70;;;38.53;;
19189;SDS011;9727;50.200;19.038;2023-03-03T09:02:24;96.83;;;36.30;;
19189;SDS011;9727;50.200;19.038;2023-03-03T09:04:51;99.17;;;36.00;;
19189;SDS011;9727;50.200;19.038;2023-03-03T09:07:18;89.73;;;35.00;;
19189;SDS011;9727;50.200;19.038;2023-03-03T09:09:45;96.63;;;35.87;;
19189;SDS011;9727;50.200;19.038;2023-03-03T09:15:09;94.27;;;33.63;;
19189;SDS011;9727;50.200;19.038;2023-03-03T09:17:38;85.77;;;33.70;;
19189;SDS011;9727;50.200;19.038;2023-03-03T09:20:14;84.90;;;33.30;;
19189;SDS011;9727;50.200;19.038;2023-03-03T09:22:47;83.50;;;30.80;;
19189;SDS011;9727;50.200;19.038;2023-03-03T09:25:21;86.57;;;31.03;;
19189;SDS011;9727;50.200;19.038;2023-03-03T09:27:48;80.77;;;31.13;;
19189;SDS011;9727;50.200;19.038;2023-03-03T09:30:26;79.57;;;29.00;;
19189;SDS011;9727;50.200;19.038;2023-03-03T09:32:55;84.63;;;29.97;;
19189;SDS011;9727;50.200;19.038;2023-03-03T09:35:34;82.03;;;30.07;;
19189;SDS011;9727;50.200;19.038;2023-03-03T09:38:01;81.97;;;30.27;;
19189;SDS011;9727;50.200;19.038;2023-03-03T09:40:38;80.60;;;29.70;;
19189;SDS011;9727;50.200;19.038;2023-03-03T09:43:15;83.37;;;29.97;;
19189;SDS011;9727;50.200;19.038;2023-03-03T09:45:54;81.57;;;30.73;;
19189;SDS011;9727;50.200;19.038;2023-03-03T09:48:28;80.03;;;29.03;;
19189;SDS011;9727;50.200;19.038;2023-03-03T09:51:08;79.70;;;30.03;;
19189;SDS011;9727;50.200;19.038;2023-03-03T09:53:41;75.10;;;28.43;;
19189;SDS011;9727;50.200;19.038;2023-03-03T09:56:16;77.43;;;28.10;;
19189;SDS011;9727;50.200;19.038;2023-03-03T09:58:57;73.03;;;26.13;;
19189;SDS011;9727;50.200;19.038;2023-03-03T10:04:27;75.57;;;26.37;;
19189;SDS011;9727;50.200;19.038;2023-03-03T10:07:05;75.00;;;27.03;;
19189;SDS011;9727;50.200;19.038;2023-03-03T10:09:38;75.00;;;25.67;;
19189;SDS011;9727;50.200;19.038;2023-03-03T10:12:09;71.43;;;26.27;;
19189;SDS011;9727;50.200;19.038;2023-03-03T10:14:52;71.40;;;27.20;;
19189;SDS011;9727;50.200;19.038;2023-03-03T10:17:29;69.10;;;25.50;;
19189;SDS011;9727;50.200;19.038;2023-03-03T10:20:05;67.77;;;25.73;;
19189;SDS011;9727;50.200;19.038;2023-03-03T10:22:38;64.30;;;25.50;;
19189;SDS011;9727;50.200;19.038;2023-03-03T10:25:10;76.03;;;27.77;;
19189;SDS011;9727;50.200;19.038;2023-03-03T10:27:48;66.23;;;27.47;;
19189;SDS011;9727;50.200;19.038;2023-03-03T10:30:20;70.47;;;25.83;;
19189;SDS011;9727;50.200;19.038;2023-03-03T10:32:53;74.03;;;27.27;;
19189;SDS011;9727;50.200;19.038;2023-03-03T10:35:31;71.10;;;26.43;;
19189;SDS011;9727;50.200;19.038;2023-03-03T10:38:02;68.63;;;25.73;;
19189;SDS011;9727;50.200;19.038;2023-03-03T10:40:32;70.47;;;26.30;;
19189;SDS011;9727;50.200;19.038;2023-03-03T10:43:04;81.37;;;28.57;;
19189;SDS011;9727;50.200;19.038;2023-03-03T10:45:49;76.40;;;27.20;;
19189;SDS011;9727;50.200;19.038;2023-03-03T10:48:28;69.17;;;26.23;;
19189;SDS011;9727;50.200;19.038;2023-03-03T10:51:03;75.53;;;25.83;;
19189;SDS011;9727;50.200;19.038;2023-03-03T10:53:38;66.90;;;26.40;;
19189;SDS011;9727;50.200;19.038;2023-03-03T10:56:13;76.10;;;27.20;;
19189;SDS011;9727;50.200;19.038;2023-03-03T10:58:45;72.33;;;26.57;;
19189;SDS011;9727;50.200;19.038;2023-03-03T11:01:20;73.70;;;26.97;;
19189;SDS011;9727;50.200;19.038;2023-03-03T11:06:44;72.40;;;27.53;;
19189;SDS011;9727;50.200;19.038;2023-03-03T11:09:28;69.57;;;26.63;;
19189;SDS011;9727;50.200;19.038;2023-03-03T11:11:58;79.13;;;25.60;;
19189;SDS011;9727;50.200;19.038;2023-03-03T11:14:28;68.00;;;23.97;;
19189;SDS011;9727;50.200;19.038;2023-03-03T11:16:57;59.07;;;23.03;;
19189;SDS011;9727;50.200;19.038;2023-03-03T11:19:35;61.17;;;23.00;;
19189;SDS011;9727;50.200;19.038;2023-03-03T11:22:10;58.87;;;22.80;;
19189;SDS011;9727;50.200;19.038;2023-03-03T11:24:44;54.87;;;21.37;;
19189;SDS011;9727;50.200;19.038;2023-03-03T11:27:25;56.73;;;21.63;;
19189;SDS011;9727;50.200;19.038;2023-03-03T11:32:37;51.50;;;20.13;;
19189;SDS011;9727;50.200;19.038;2023-03-03T11:35:16;52.90;;;20.53;;
19189;SDS011;9727;50.200;19.038;2023-03-03T11:37:48;62.17;;;21.57;;
19189;SDS011;9727;50.200;19.038;2023-03-03T11:40:19;56.33;;;20.97;;
19189;SDS011;9727;50.200;19.038;2023-03-03T11:42:51;51.50;;;19.67;;
19189;SDS011;9727;50.200;19.038;2023-03-03T11:45:21;48.83;;;20.13;;
19189;SDS011;9727;50.200;19.038;2023-03-03T11:47:54;51.47;;;20.03;;
19189;SDS011;9727;50.200;19.038;2023-03-03T11:50:34;52.10;;;20.03;;
19189;SDS011;9727;50.200;19.038;2023-03-03T11:53:17;52.47;;;20.87;;
19189;SDS011;9727;50.200;19.038;2023-03-03T11:55:48;55.17;;;20.83;;
19189;SDS011;9727;50.200;19.038;2023-03-03T11:58:19;54.50;;;21.07;;
19189;SDS011;9727;50.200;19.038;2023-03-03T12:00:52;55.40;;;20.70;;
19189;SDS011;9727;50.200;19.038;2023-03-03T12:03:26;60.13;;;21.37;;
19189;SDS011;9727;50.200;19.038;2023-03-03T12:06:03;53.03;;;20.70;;
19189;SDS011;9727;50.200;19.038;2023-03-03T12:08:39;50.00;;;21.10;;
19189;SDS011;9727;50.200;19.038;2023-03-03T12:11:09;52.30;;;20.60;;
19189;SDS011;9727;50.200;19.038;2023-03-03T12:13:42;61.87;;;22.33;;
19189;SDS011;9727;50.200;19.038;2023-03-03T12:16:15;58.60;;;22.13;;
19189;SDS011;9727;50.200;19.038;2023-03-03T12:18:56;58.23;;;22.93;;
19189;SDS011;9727;50.200;19.038;2023-03-03T12:21:31;60.60;;;22.93;;
19189;SDS011;9727;50.200;19.038;2023-03-03T12:24:04;54.70;;;21.73;;
19189;SDS011;9727;50.200;19.038;2023-03-03T12:26:35;54.20;;;21.20;;
19189;SDS011;9727;50.200;19.038;2023-03-03T12:29:10;48.53;;;19.73;;
19189;SDS011;9727;50.200;19.038;2023-03-03T12:31:44;48.47;;;19.80;;
19189;SDS011;9727;50.200;19.038;2023-03-03T12:34:16;52.20;;;19.43;;
19189;SDS011;9727;50.200;19.038;2023-03-03T12:39:42;45.93;;;19.47;;
19189;SDS011;9727;50.200;19.038;2023-03-03T12:42:12;46.37;;;18.63;;
19189;SDS011;9727;50.200;19.038;2023-03-03T12:44:42;43.97;;;19.67;;
19189;SDS011;9727;50.200;19.038;2023-03-03T12:47:12;49.90;;;20.53;;
19189;SDS011;9727;50.200;19.038;2023-03-03T12:49:44;51.57;;;21.23;;
19189;SDS011;9727;50.200;19.038;2023-03-03T12:52:19;43.60;;;18.73;;
19189;SDS011;9727;50.200;19.038;2023-03-03T12:54:55;46.20;;;20.27;;
19189;SDS011;9727;50.200;19.038;2023-03-03T12:57:28;53.03;;;21.17;;
19189;SDS011;9727;50.200;19.038;2023-03-03T13:00:04;55.10;;;22.07;;
19189;SDS011;9727;50.200;19.038;2023-03-03T13:02:42;50.43;;;21.00;;
19189;SDS011;9727;50.200;19.038;2023-03-03T13:05:23;50.83;;;21.47;;
19189;SDS011;9727;50.200;19.038;2023-03-03T13:07:58;49.60;;;22.47;;
19189;SDS011;9727;50.200;19.038;2023-03-03T13:10:30;51.00;;;21.80;;
19189;SDS011;9727;50.200;19.038;2023-03-03T13:13:00;53.73;;;23.57;;
19189;SDS011;9727;50.200;19.038;2023-03-03T13:15:29;56.93;;;23.40;;
19189;SDS011;9727;50.200;19.038;2023-03-03T13:17:58;47.73;;;22.47;;
19189;SDS011;9727;50.200;19.038;2023-03-03T13:20:29;47.97;;;21.63;;
19189;SDS011;9727;50.200;19.038;2023-03-03T13:23:03;49.97;;;22.17;;
19189;SDS011;9727;50.200;19.038;2023-03-03T13:25:35;53.30;;;23.17;;
19189;SDS011;9727;50.200;19.038;2023-03-03T13:28:10;50.80;;;21.20;;
19189;SDS011;9727;50.200;19.038;2023-03-03T13:30:39;48.13;;;21.00;;
19189;SDS011;9727;50.200;19.038;2023-03-03T13:33:10;52.27;;;21.53;;
19189;SDS011;9727;50.200;19.038;2023-03-03T13:35:42;49.13;;;21.53;;
19189;SDS011;9727;50.200;19.038;2023-03-03T13:38:11;42.43;;;19.87;;
19189;SDS011;9727;50.200;19.038;2023-03-03T13:40:41;39.60;;;18.83;;
19189;SDS011;9727;50.200;19.038;2023-03-03T13:43:09;45.63;;;19.33;;
19189;SDS011;9727;50.200;19.038;2023-03-03T13:45:40;40.10;;;18.63;;
19189;SDS011;9727;50.200;19.038;2023-03-03T13:48:14;44.03;;;19.63;;
19189;SDS011;9727;50.200;19.038;2023-03-03T13:50:43;44.03;;;17.77;;
19189;SDS011;9727;50.200;19.038;2023-03-03T13:53:22;39.97;;;18.20;;
19189;SDS011;9727;50.200;19.038;2023-03-03T13:55:54;35.53;;;16.07;;
19189;SDS011;9727;50.200;19.038;2023-03-03T13:58:25;45.67;;;18.80;;
19189;SDS011;9727;50.200;19.038;2023-03-03T14:01:02;39.50;;;17.90;;
19189;SDS011;9727;50.200;19.038;2023-03-03T14:03:36;40.83;;;18.83;;
19189;SDS011;9727;50.200;19.038;2023-03-03T14:06:07;43.60;;;18.60;;
19189;SDS011;9727;50.200;19.038;2023-03-03T14:08:42;41.53;;;18.63;;
19189;SDS011;9727;50.200;19.038;2023-03-03T14:11:15;39.30;;;18.23;;
19189;SDS011;9727;50.200;19.038;2023-03-03T14:13:43;37.27;;;18.97;;
19189;SDS011;9727;50.200;19.038;2023-03-03T14:16:18;47.63;;;19.27;;
19189;SDS011;9727;50.200;19.038;2023-03-03T14:18:51;48.57;;;20.83;;
19189;SDS011;9727;50.200;19.038;2023-03-03T14:21:20;41.93;;;19.60;;
19189;SDS011;9727;50.200;19.038;2023-03-03T14:23:49;50.87;;;20.60;;
19189;SDS011;9727;50.200;19.038;2023-03-03T14:26:18;45.63;;;19.67;;
19189;SDS011;9727;50.200;19.038;2023-03-03T14:28:45;41.27;;;19.07;;
19189;SDS011;9727;50.200;19.038;2023-03-03T14:31:14;44.07;;;19.40;;
19189;SDS011;9727;50.200;19.038;2023-03-03T14:33:42;44.70;;;19.77;;
19189;SDS011;9727;50.200;19.038;2023-03-03T14:36:10;72.93;;;33.23;;
19189;SDS011;9727;50.200;19.038;2023-03-03T14:38:50;49.27;;;23.83;;
19189;SDS011;9727;50.200;19.038;2023-03-03T14:41:21;45.07;;;21.00;;
19189;SDS011;9727;50.200;19.038;2023-03-03T14:43:58;46.87;;;20.43;;
19189;SDS011;9727;50.200;19.038;2023-03-03T14:46:35;44.73;;;21.07;;
19189;SDS011;9727;50.200;19.038;2023-03-03T14:49:04;44.70;;;20.17;;
19189;SDS011;9727;50.200;19.038;2023-03-03T14:51:37;42.30;;;19.67;;
19189;SDS011;9727;50.200;19.038;2023-03-03T14:54:06;44.77;;;20.20;;